Time;durP1;ratioP1;P1;durP2;ratioP2;P2;SDS_P1;SDS_P2;PMS_P1;PMS_P2;Temp;Humidity;BMP_temperature;BMP_pressure;BME280_temperature;BME280_humidity;BME280_pressure;Samples;Min_cycle;Max_cycle;Signal;HPM_P1;HPM_P2
2022/04/29 00:05:28;;;;;;;;;;;10.20;1.00;;;;;;5074473;28;19930;-79
2022/04/29 00:08:12;;;;;;;;;;;10.20;1.00;;;;;;5074305;28;20363;-79
2022/04/29 00:10:47;;;;;;;;;;;10.20;1.00;;;;;;5074435;28;19945;-79
2022/04/29 00:13:18;;;;;;;;;;;10.20;1.00;;;;;;5074525;28;19958;-79
2022/04/29 00:15:43;;;;;;;;;;;10.20;1.00;;;;;;5079396;28;19917;-79
2022/04/29 00:18:09;;;;;;;;;;;10.20;1.00;;;;;;5074799;28;19908;-76
2022/04/29 00:20:35;;;;;;;;;;;10.20;1.00;;;;;;5076441;28;19947;-75
2022/04/29 00:23:06;;;;;;;;;;;10.20;1.00;;;;;;5074774;28;19915;-76
2022/04/29 00:25:48;;;;;;;;;;;10.20;1.00;;;;;;5074665;28;19908;-76
2022/04/29 00:28:14;;;;;;;;;;;10.20;1.00;;;;;;5106992;28;19909;-76
2022/04/29 00:30:42;;;;;;;;;;;10.20;1.00;;;;;;5074183;28;20265;-76
2022/04/29 00:33:11;;;;;;;;;;;10.20;1.00;;;;;;5074875;28;19908;-79
2022/04/29 00:35:47;;;;;;;;;;;10.20;1.00;;;;;;5073941;28;19924;-79
2022/04/29 00:38:16;;;;;;;;;;;10.20;1.00;;;;;;5074140;28;19912;-79
2022/04/29 00:41:00;;;;;;;;;;;10.20;1.00;;;;;;5074156;28;20432;-79
2022/04/29 00:43:53;;;;;;;;;;;10.20;1.00;;;;;;5074014;28;19908;-79
2022/04/29 00:46:33;;;;;;;;;;;10.20;1.00;;;;;;5073832;28;19908;-79
2022/04/29 00:49:07;;;;;;;;;;;10.20;1.00;;;;;;5061043;28;20341;-79
2022/04/29 00:51:36;;;;;;;;;;;10.10;1.00;;;;;;5084991;28;19946;-79
2022/04/29 00:54:10;;;;;;;;;;;10.10;1.00;;;;;;5074241;28;19944;-79
2022/04/29 00:56:49;;;;;;;;;;;10.10;1.00;;;;;;5073903;28;20275;-79
2022/04/29 00:59:50;;;;;;;;;;;10.10;1.00;;;;;;5073844;28;19909;-79
2022/04/29 01:02:29;;;;;;;;;;;10.10;1.00;;;;;;5068377;28;20265;-79
2022/04/29 01:05:02;;;;;;;;;;;10.00;1.00;;;;;;5051783;28;20299;-75
2022/04/29 01:07:28;;;;;;;;;;;10.00;1.00;;;;;;5051884;28;19915;-75
2022/04/29 01:10:06;;;;;;;;;;;9.90;1.00;;;;;;5038569;28;19913;-75
2022/04/29 01:12:37;;;;;;;;;;;9.90;1.00;;;;;;5055469;28;19920;-75
2022/04/29 01:15:18;;;;;;;;;;;9.80;1.00;;;;;;5055832;28;20470;-75
2022/04/29 01:18:12;;;;;;;;;;;9.80;1.00;;;;;;5056339;28;19915;-79
2022/04/29 01:20:41;;;;;;;;;;;9.70;1.00;;;;;;5055736;28;19913;-79
2022/04/29 01:26:14;;;;;;;;;;;9.60;1.00;;;;;;5056317;28;20436;-79
2022/04/29 01:32:00;;;;;;;;;;;9.50;1.00;;;;;;5055284;28;20011;-79
2022/04/29 01:34:25;;;;;;;;;;;9.50;1.00;;;;;;5055523;28;19916;-75
2022/04/29 01:36:53;;;;;;;;;;;9.40;1.00;;;;;;5070639;28;19962;-75
2022/04/29 01:39:24;;;;;;;;;;;9.30;1.00;;;;;;5076909;28;19931;-75
2022/04/29 01:42:00;;;;;;;;;;;9.30;1.00;;;;;;5077417;28;19944;-75
2022/04/29 01:44:25;;;;;;;;;;;9.30;1.00;;;;;;5077214;28;20007;-75
2022/04/29 01:46:53;;;;;;;;;;;9.30;1.00;;;;;;5077747;28;19939;-75
2022/04/29 01:52:22;;;;;;;;;;;9.20;1.00;;;;;;5077102;28;19957;-79
2022/04/29 01:55:18;;;;;;;;;;;9.10;1.00;;;;;;5109328;28;20344;-79
2022/04/29 01:57:56;;;;;;;;;;;9.20;1.00;;;;;;5077328;28;19920;-80
2022/04/29 02:00:24;;;;;;;;;;;9.10;1.00;;;;;;5067662;28;19912;-80
2022/04/29 02:05:52;;;;;;;;;;;9.10;1.00;;;;;;5076800;28;19992;-79
2022/04/29 02:08:17;;;;;;;;;;;9.10;1.00;;;;;;5076825;28;19951;-79
2022/04/29 02:11:06;;;;;;;;;;;9.10;1.00;;;;;;5076710;28;19912;-81
2022/04/29 02:16:47;;;;;;;;;;;9.00;1.00;;;;;;5063748;28;19923;-79
2022/04/29 02:19:30;;;;;;;;;;;9.00;1.00;;;;;;5077132;28;19913;-75
2022/04/29 02:21:56;;;;;;;;;;;8.90;1.00;;;;;;5064734;28;19944;-76
2022/04/29 02:24:24;;;;;;;;;;;8.90;1.00;;;;;;5094498;28;20386;-76
2022/04/29 02:27:07;;;;;;;;;;;8.90;1.00;;;;;;5086013;28;19913;-75
2022/04/29 02:29:36;;;;;;;;;;;8.90;1.00;;;;;;5062193;28;19919;-76
2022/04/29 02:32:18;;;;;;;;;;;8.90;1.00;;;;;;5080605;28;19958;-76
2022/04/29 02:34:43;;;;;;;;;;;8.80;1.00;;;;;;5076473;28;19959;-76
2022/04/29 02:37:11;;;;;;;;;;;8.80;1.00;;;;;;5076702;28;20009;-76
2022/04/29 02:39:37;;;;;;;;;;;8.80;1.00;;;;;;5076336;28;19909;-75
2022/04/29 02:42:12;;;;;;;;;;;8.80;1.00;;;;;;5076422;28;19936;-75
2022/04/29 02:44:48;;;;;;;;;;;;;;;;;;5076046;28;19909;-75
2022/04/29 02:47:18;;;;;;;;;;;8.80;1.00;;;;;;5076637;28;20364;-75
2022/04/29 02:49:44;;;;;;;;;;;8.80;1.00;;;;;;5076188;28;19920;-79
2022/04/29 02:52:12;;;;;;;;;;;8.80;1.00;;;;;;5076177;28;19930;-79
2022/04/29 02:55:05;;;;;;;;;;;8.70;1.00;;;;;;5075920;28;20276;-80
2022/04/29 03:00:34;;;;;;;;;;;8.70;1.00;;;;;;5075747;28;19935;-79
2022/04/29 03:06:02;;;;;;;;;;;8.70;1.00;;;;;;5075795;28;20389;-80
2022/04/29 03:08:30;;;;;;;;;;;8.70;1.00;;;;;;5075651;28;20007;-80
2022/04/29 03:11:24;;;;;;;;;;;8.70;1.00;;;;;;5075826;28;19912;-79
2022/04/29 03:16:52;;;;;;;;;;;8.70;1.00;;;;;;5063438;28;19927;-79
2022/04/29 03:19:24;;;;;;;;;;;8.60;1.00;;;;;;5074726;28;19909;-75
2022/04/29 03:22:06;;;;;;;;;;;8.60;1.00;;;;;;5075412;28;20007;-75
2022/04/29 03:24:35;;;;;;;;;;;8.60;1.00;;;;;;5074217;28;19944;-75
2022/04/29 03:27:00;;;;;;;;;;;8.60;1.00;;;;;;5075709;28;19908;-75
2022/04/29 03:29:54;;;;;;;;;;;8.50;1.00;;;;;;5075413;28;19953;-75
2022/04/29 03:32:19;;;;;;;;;;;8.50;1.00;;;;;;5075364;28;19957;-80
2022/04/29 03:35:00;;;;;;;;;;;8.40;1.00;;;;;;5074693;28;19920;-79
2022/04/29 03:37:42;;;;;;;;;;;8.40;1.00;;;;;;5075252;28;19995;-80
2022/04/29 03:40:21;;;;;;;;;;;8.40;1.00;;;;;;5069144;28;19908;-79
2022/04/29 03:42:47;;;;;;;;;;;8.30;1.00;;;;;;5074977;28;19908;-79
2022/04/29 03:45:13;;;;;;;;;;;8.30;1.00;;;;;;5074863;28;19956;-79
2022/04/29 03:47:42;;;;;;;;;;;8.30;1.00;;;;;;5073737;28;19951;-80
2022/04/29 03:50:35;;;;;;;;;;;8.20;1.00;;;;;;5075072;28;19913;-79
2022/04/29 03:53:06;;;;;;;;;;;8.20;1.00;;;;;;5074951;28;20276;-80
2022/04/29 03:56:06;;;;;;;;;;;8.20;1.00;;;;;;5074682;28;19919;-79
2022/04/29 03:58:36;;;;;;;;;;;8.10;1.00;;;;;;5074900;28;19908;-80
2022/04/29 04:01:06;;;;;;;;;;;8.10;1.00;;;;;;5073531;28;19908;-81
2022/04/29 04:03:32;;;;;;;;;;;8.10;1.00;;;;;;5074786;28;19915;-80
2022/04/29 04:08:44;;;;;;;;;;;;;;;;;;5063739;28;20544;-75
2022/04/29 04:11:18;;;;;;;;;;;8.00;1.00;;;;;;5074799;28;19909;-75
2022/04/29 04:13:48;;;;;;;;;;;7.90;1.00;;;;;;5074603;28;20007;-76
2022/04/29 04:16:18;;;;;;;;;;;7.90;1.00;;;;;;5074811;28;19967;-75
2022/04/29 04:18:54;;;;;;;;;;;7.90;1.00;;;;;;5074524;28;19912;-75
2022/04/29 04:21:36;;;;;;;;;;;7.90;1.00;;;;;;5087104;28;19908;-80
2022/04/29 04:24:06;;;;;;;;;;;7.90;1.00;;;;;;5069298;28;19908;-79
2022/04/29 04:29:54;;;;;;;;;;;7.90;1.00;;;;;;5084019;28;19919;-80
2022/04/29 04:32:42;;;;;;;;;;;8.00;1.00;;;;;;5075704;28;19919;-80
2022/04/29 04:35:30;;;;;;;;;;;8.00;1.00;;;;;;5060320;28;19920;-80
2022/04/29 04:38:24;;;;;;;;;;;8.10;1.00;;;;;;5065948;28;19912;-80
2022/04/29 04:40:55;;;;;;;;;;;8.20;1.00;;;;;;5074077;28;19915;-75
2022/04/29 04:43:24;;;;;;;;;;;8.20;1.00;;;;;;5064869;28;19917;-75
2022/04/29 04:46:00;;;;;;;;;;;8.20;1.00;;;;;;5073201;28;19916;-75
2022/04/29 04:48:26;;;;;;;;;;;8.30;1.00;;;;;;5074192;28;19954;-75
2022/04/29 04:51:03;;;;;;;;;;;8.40;1.00;;;;;;5069196;28;19908;-78
2022/04/29 04:53:29;;;;;;;;;;;;;;;;;;5064795;28;19916;-75
2022/04/29 04:56:12;;;;;;;;;;;8.50;1.00;;;;;;5074178;28;19930;-77
2022/04/29 04:58:42;;;;;;;;;;;8.70;1.00;;;;;;5061084;28;19916;-74
2022/04/29 05:01:24;;;;;;;;;;;8.70;1.00;;;;;;5068469;28;19909;-73
2022/04/29 05:03:54;;;;;;;;;;;8.80;1.00;;;;;;5080534;28;19913;-74
2022/04/29 05:06:24;;;;;;;;;;;9.10;1.00;;;;;;5074043;28;19908;-74
2022/04/29 05:09:00;;;;;;;;;;;9.20;1.00;;;;;;5074185;28;19908;-75
2022/04/29 05:11:25;;;;;;;;;;;9.40;1.00;;;;;;5073065;28;19982;-80
2022/04/29 05:14:11;;;;;;;;;;;9.60;1.00;;;;;;5073559;28;19935;-80
2022/04/29 05:16:42;;;;;;;;;;;9.90;1.00;;;;;;5061989;28;19913;-80
2022/04/29 05:19:12;;;;;;;;;;;10.10;1.00;;;;;;5073450;28;19919;-79
2022/04/29 05:21:37;;;;;;;;;;;10.30;1.00;;;;;;5063486;28;19916;-74
2022/04/29 05:24:03;;;;;;;;;;;10.40;1.00;;;;;;5066732;28;19916;-74
2022/04/29 05:26:28;;;;;;;;;;;10.60;1.00;;;;;;5073783;28;19991;-74
2022/04/29 05:29:00;;;;;;;;;;;10.80;1.00;;;;;;5072446;28;19909;-74
2022/04/29 05:31:25;;;;;;;;;;;10.90;1.00;;;;;;5071934;28;20430;-74
2022/04/29 05:33:51;;;;;;;;;;;11.10;1.00;;;;;;5071029;28;19963;-74
2022/04/29 05:36:18;;;;;;;;;;;11.20;1.00;;;;;;5074221;28;19939;-74
2022/04/29 05:44:30;;;;;;;;;;;11.90;1.00;;;;;;5073228;28;19923;-74
2022/04/29 05:46:55;;;;;;;;;;;11.90;1.00;;;;;;5069753;28;19991;-74
2022/04/29 05:49:21;;;;;;;;;;;12.10;1.00;;;;;;5073421;28;19999;-74
2022/04/29 05:52:03;;;;;;;;;;;12.30;1.00;;;;;;5073801;28;19908;-81
2022/04/29 05:54:30;;;;;;;;;;;12.50;1.00;;;;;;5076230;28;19912;-79
2022/04/29 05:57:01;;;;;;;;;;;12.60;1.00;;;;;;5074398;28;19923;-78
2022/04/29 05:59:42;;;;;;;;;;;12.70;1.00;;;;;;5076822;28;19943;-78
2022/04/29 06:02:08;;;;;;;;;;;12.90;1.00;;;;;;5064875;28;19912;-78
2022/04/29 06:05:00;;;;;;;;;;;13.00;1.00;;;;;;5109475;28;19936;-79
2022/04/29 06:07:48;;;;;;;;;;;13.10;99.90;;;;;;5059647;28;19944;-80
2022/04/29 06:10:15;;;;;;;;;;;13.20;99.90;;;;;;5072102;28;20348;-81
2022/04/29 06:12:54;;;;;;;;;;;13.40;99.90;;;;;;5070148;28;19960;-81
2022/04/29 06:15:19;;;;;;;;;;;13.40;99.90;;;;;;5071957;28;19916;-74
2022/04/29 06:17:46;;;;;;;;;;;13.50;99.90;;;;;;5070895;28;19912;-74
2022/04/29 06:20:12;;;;;;;;;;;13.50;99.90;;;;;;5075424;28;19908;-75
2022/04/29 06:22:48;;;;;;;;;;;13.60;99.90;;;;;;5082648;28;19915;-75
2022/04/29 06:25:14;;;;;;;;;;;;;;;;;;5069550;28;19921;-75
2022/04/29 06:27:41;;;;;;;;;;;13.70;99.90;;;;;;5074442;28;19912;-74
2022/04/29 06:30:08;;;;;;;;;;;13.70;99.90;;;;;;5075682;28;19912;-75
2022/04/29 06:32:34;;;;;;;;;;;13.80;99.90;;;;;;5072107;28;20015;-75
2022/04/29 06:35:00;;;;;;;;;;;13.90;99.90;;;;;;5067773;28;19920;-75
2022/04/29 06:44:12;;;;;;;;;;;14.10;99.90;;;;;;5062104;28;19920;-83
2022/04/29 06:47:18;;;;;;;;;;;14.20;99.90;;;;;;5073054;28;19913;-83
2022/04/29 06:50:10;;;;;;;;;;;14.30;99.90;;;;;;5075968;28;20424;-83
2022/04/29 06:52:42;;;;;;;;;;;14.40;99.90;;;;;;5070324;28;19912;-83
2022/04/29 06:58:18;;;;;;;;;;;14.50;99.90;;;;;;5064108;28;20058;-83
2022/04/29 07:03:54;;;;;;;;;;;14.70;99.90;;;;;;5075531;28;19918;-83
2022/04/29 07:06:21;;;;;;;;;;;14.80;99.90;;;;;;5077292;28;19909;-74
2022/04/29 07:08:48;;;;;;;;;;;14.90;99.90;;;;;;5068709;28;19913;-74
2022/04/29 07:11:31;;;;;;;;;;;15.00;99.90;;;;;;5075002;28;19916;-72
2022/04/29 07:14:06;;;;;;;;;;;15.10;99.90;;;;;;5075698;28;19913;-72
2022/04/29 07:16:36;;;;;;;;;;;15.20;99.90;;;;;;5083372;28;19918;-80
2022/04/29 07:19:01;;;;;;;;;;;15.30;99.90;;;;;;5076940;28;19913;-70
2022/04/29 07:21:27;;;;;;;;;;;15.40;99.90;;;;;;5074971;28;19935;-72
2022/04/29 07:23:54;;;;;;;;;;;15.40;99.90;;;;;;5074757;28;19917;-73
2022/04/29 07:26:20;;;;;;;;;;;15.60;99.90;;;;;;5074639;28;19973;-74
2022/04/29 07:28:49;;;;;;;;;;;15.70;99.90;;;;;;5106602;28;19912;-74
2022/04/29 07:31:18;;;;;;;;;;;15.70;99.90;;;;;;5075502;28;19978;-73
2022/04/29 07:33:54;;;;;;;;;;;15.90;99.90;;;;;;5077192;28;20374;-73
2022/04/29 07:42:06;;;;;;;;;;;16.50;99.90;;;;;;5061359;28;20527;-74
2022/04/29 07:44:36;;;;;;;;;;;16.70;99.90;;;;;;5053433;28;19928;-73
2022/04/29 07:47:01;;;;;;;;;;;16.90;99.90;;;;;;5053121;28;19909;-73
2022/04/29 07:49:27;;;;;;;;;;;17.20;99.90;;;;;;5055464;28;19920;-73
2022/04/29 07:51:53;;;;;;;;;;;17.20;99.90;;;;;;5048435;28;19920;-74
2022/04/29 07:54:19;;;;;;;;;;;17.40;99.90;;;;;;5052373;28;19916;-71
2022/04/29 07:56:44;;;;;;;;;;;17.50;99.90;;;;;;5052119;28;19970;-71
2022/04/29 07:59:10;;;;;;;;;;;17.50;99.90;;;;;;5052408;28;20002;-71
2022/04/29 08:01:38;;;;;;;;;;;17.70;99.90;;;;;;5051293;28;19938;-71
2022/04/29 08:04:04;;;;;;;;;;;17.80;99.90;;;;;;5051148;28;19947;-71
2022/04/29 08:06:30;;;;;;;;;;;17.90;99.90;;;;;;5050883;28;19928;-71
2022/04/29 08:08:56;;;;;;;;;;;;;;;;;;5050952;28;19920;-73
2022/04/29 08:11:21;;;;;;;;;;;18.00;99.90;;;;;;5048374;28;19943;-73
2022/04/29 08:13:47;;;;;;;;;;;18.00;99.90;;;;;;5044702;28;20384;-73
2022/04/29 08:16:13;;;;;;;;;;;18.00;99.90;;;;;;5049894;28;19944;-71
2022/04/29 08:18:40;;;;;;;;;;;;;;;;;;5051851;28;19919;-71
2022/04/29 08:21:06;;;;;;;;;;;;;;;;;;5064220;28;20003;-71
2022/04/29 08:23:31;;;;;;;;;;;18.10;99.90;;;;;;5073031;28;19912;-71
2022/04/29 08:25:57;;;;;;;;;;;18.20;99.90;;;;;;5072133;28;19909;-71
2022/04/29 08:28:23;;;;;;;;;;;18.20;99.90;;;;;;5072451;28;20346;-71
2022/04/29 08:30:48;;;;;;;;;;;18.40;99.90;;;;;;5072836;28;19961;-71
2022/04/29 08:33:14;;;;;;;;;;;18.60;99.90;;;;;;5073168;28;19919;-71
2022/04/29 08:35:40;;;;;;;;;;;18.60;99.90;;;;;;5072926;28;19916;-71
2022/04/29 08:38:10;;;;;;;;;;;18.80;99.90;;;;;;5070526;28;19919;-71
2022/04/29 08:40:43;;;;;;;;;;;19.00;99.90;;;;;;5072016;28;20377;-74
2022/04/29 08:43:09;;;;;;;;;;;19.20;99.90;;;;;;5071421;28;19918;-74
2022/04/29 08:45:36;;;;;;;;;;;19.20;99.90;;;;;;5072800;28;20387;-74
2022/04/29 08:48:02;;;;;;;;;;;19.50;99.90;;;;;;5065300;28;20249;-70
2022/04/29 08:50:30;;;;;;;;;;;19.60;99.90;;;;;;5069614;28;19908;-70
2022/04/29 08:52:56;;;;;;;;;;;19.60;99.90;;;;;;5072440;28;20391;-70
2022/04/29 09:00:51;;;;;;;;;;;;;;;;;;5061747;28;20016;-76
2022/04/29 09:03:17;;;;;;;;;;;20.10;99.90;;;;;;5071295;28;19913;-76
2022/04/29 09:05:43;;;;;;;;;;;20.40;99.90;;;;;;5072798;28;19912;-76
2022/04/29 09:08:12;;;;;;;;;;;20.50;99.90;;;;;;5068820;28;19964;-81
2022/04/29 09:10:46;;;;;;;;;;;20.60;99.90;;;;;;5066239;28;19916;-85
2022/04/29 09:13:25;;;;;;;;;;;20.70;99.90;;;;;;5071159;28;20037;-87
2022/04/29 09:15:52;;;;;;;;;;;20.60;99.90;;;;;;5068646;28;20323;-76
2022/04/29 09:18:31;;;;;;;;;;;20.40;99.90;;;;;;5070752;28;20098;-76
2022/04/29 09:20:57;;;;;;;;;;;20.40;99.90;;;;;;5072447;28;19974;-76
2022/04/29 09:23:26;;;;;;;;;;;20.70;99.90;;;;;;5072556;28;19977;-76
2022/04/29 09:25:52;;;;;;;;;;;20.80;99.90;;;;;;5072649;28;19912;-80
2022/04/29 09:28:18;;;;;;;;;;;;;;;;;;5070137;28;20414;-81
2022/04/29 09:30:43;;;;;;;;;;;20.90;99.90;;;;;;5064839;28;19917;-81
2022/04/29 09:33:18;;;;;;;;;;;21.20;99.90;;;;;;5074641;28;19987;-80
2022/04/29 09:35:45;;;;;;;;;;;21.30;99.90;;;;;;5076056;28;19920;-80
2022/04/29 09:41:00;;;;;;;;;;;21.40;99.90;;;;;;5077670;28;20303;-80
2022/04/29 09:44:00;;;;;;;;;;;21.50;99.90;;;;;;5077294;28;19908;-80
2022/04/29 09:46:48;;;;;;;;;;;21.40;99.90;;;;;;5067431;28;19999;-80
2022/04/29 09:49:28;;;;;;;;;;;21.50;99.90;;;;;;5076057;28;19920;-80
2022/04/29 09:52:12;;;;;;;;;;;21.60;99.90;;;;;;5077157;28;20383;-80
2022/04/29 09:57:40;;;;;;;;;;;;;;;;;;5055604;28;19919;-78
2022/04/29 10:00:06;;;;;;;;;;;22.20;99.90;;;;;;5090956;28;19908;-78
2022/04/29 10:02:42;;;;;;;;;;;22.10;99.90;;;;;;5077011;28;19915;-78
2022/04/29 10:05:18;;;;;;;;;;;22.20;99.90;;;;;;5075649;28;20517;-78
2022/04/29 10:08:06;;;;;;;;;;;22.50;99.90;;;;;;5076776;28;20295;-78
2022/04/29 10:10:32;;;;;;;;;;;22.60;99.90;;;;;;5096026;28;19912;-75
2022/04/29 10:12:58;;;;;;;;;;;;;;;;;;5076631;28;19916;-75
2022/04/29 10:15:24;;;;;;;;;;;23.00;99.90;;;;;;5076734;28;20356;-75
2022/04/29 10:23:24;;;;;;;;;;;24.00;99.90;;;;;;5072632;28;20386;-71
2022/04/29 10:25:50;;;;;;;;;;;23.90;99.90;;;;;;5076820;28;19909;-70
2022/04/29 10:28:20;;;;;;;;;;;24.00;99.90;;;;;;5075925;28;19916;-72
2022/04/29 10:30:47;;;;;;;;;;;;;;;;;;5069663;28;19913;-72
2022/04/29 10:33:20;;;;;;;;;;;24.00;99.90;;;;;;5074934;28;20257;-72
2022/04/29 10:35:46;;;;;;;;;;;24.10;99.90;;;;;;5070863;28;19920;-72
2022/04/29 10:38:13;;;;;;;;;;;24.30;99.90;;;;;;5075883;28;19912;-74
2022/04/29 10:41:14;;;;;;;;;;;24.40;99.90;;;;;;5066424;28;19915;-78
2022/04/29 10:46:54;;;;;;;;;;;24.60;99.90;;;;;;5053491;28;19947;-80
2022/04/29 10:49:27;;;;;;;;;;;24.50;99.90;;;;;;5038968;28;19909;-80
2022/04/29 10:51:55;;;;;;;;;;;24.60;99.90;;;;;;5041574;28;19913;-80
2022/04/29 10:54:48;;;;;;;;;;;24.60;99.90;;;;;;5043389;28;19924;-80
2022/04/29 10:57:44;;;;;;;;;;;24.60;99.90;;;;;;5053350;28;19924;-80
2022/04/29 11:00:11;;;;;;;;;;;24.80;99.90;;;;;;4988994;28;20437;-80
2022/04/29 11:02:37;;;;;;;;;;;24.70;99.90;;;;;;4975107;28;19910;-79
2022/04/29 11:05:32;;;;;;;;;;;24.90;99.90;;;;;;4991467;28;19914;-78
2022/04/29 11:08:18;;;;;;;;;;;25.00;99.90;;;;;;4978965;28;20270;-78
2022/04/29 11:10:56;;;;;;;;;;;25.10;99.90;;;;;;4994243;28;19920;-79
2022/04/29 11:13:22;;;;;;;;;;;25.50;99.90;;;;;;4976565;28;19914;-79
2022/04/29 11:16:24;;;;;;;;;;;25.50;99.90;;;;;;4974757;28;19914;-79
2022/04/29 11:19:21;;;;;;;;;;;25.60;99.90;;;;;;4980562;28;20396;-79
2022/04/29 11:24:54;;;;;;;;;;;25.80;99.90;;;;;;4974407;28;19918;-81
2022/04/29 11:27:37;;;;;;;;;;;25.60;99.90;;;;;;4955584;29;19914;-78
2022/04/29 11:30:24;;;;;;;;;;;25.50;99.90;;;;;;4955424;29;19911;-80
2022/04/29 11:33:12;;;;;;;;;;;25.60;99.90;;;;;;4971989;28;19910;-78
2022/04/29 11:35:52;;;;;;;;;;;25.60;99.90;;;;;;4976572;28;20289;-78
2022/04/29 11:38:18;;;;;;;;;;;25.30;99.90;;;;;;4993868;28;20373;-78
2022/04/29 11:40:48;;;;;;;;;;;25.30;99.90;;;;;;4980639;28;19914;-79
2022/04/29 11:43:14;;;;;;;;;;;25.20;99.90;;;;;;4985864;28;19920;-75
2022/04/29 11:45:41;;;;;;;;;;;25.10;99.90;;;;;;5026607;28;19908;-75
2022/04/29 11:48:09;;;;;;;;;;;25.10;99.90;;;;;;5027546;28;19917;-75
2022/04/29 11:50:42;;;;;;;;;;;25.10;99.90;;;;;;5030482;28;19972;-75
2022/04/29 11:53:24;;;;;;;;;;;25.10;99.90;;;;;;5027367;28;19909;-75
2022/04/29 11:55:50;;;;;;;;;;;;;;;;;;5017469;28;19917;-75
2022/04/29 11:58:27;;;;;;;;;;;25.30;99.90;;;;;;5039950;28;19912;-78
2022/04/29 12:00:55;;;;;;;;;;;25.50;99.90;;;;;;5074649;28;20352;-78
2022/04/29 12:03:30;;;;;;;;;;;25.50;99.90;;;;;;5073329;28;19909;-78
2022/04/29 12:06:18;;;;;;;;;;;25.80;99.90;;;;;;5073352;28;19935;-78
2022/04/29 12:11:46;;;;;;;;;;;25.60;99.90;;;;;;5074075;28;19931;-76
2022/04/29 12:14:19;;;;;;;;;;;25.80;99.90;;;;;;5074558;28;20348;-75
2022/04/29 12:16:48;;;;;;;;;;;26.10;99.90;;;;;;5081187;28;19999;-76
2022/04/29 12:19:19;;;;;;;;;;;26.10;99.90;;;;;;5080155;28;19916;-76
2022/04/29 12:21:55;;;;;;;;;;;26.20;99.90;;;;;;5074512;28;19910;-75
2022/04/29 12:24:24;;;;;;;;;;;26.30;99.90;;;;;;5063835;28;19931;-75
2022/04/29 12:27:06;;;;;;;;;;;26.30;99.90;;;;;;5077662;28;20310;-76
2022/04/29 12:29:32;;;;;;;;;;;26.50;99.90;;;;;;5074387;28;19913;-75
2022/04/29 12:35:04;;;;;;;;;;;26.40;99.90;;;;;;5054370;28;20274;-75
2022/04/29 12:37:36;;;;;;;;;;;26.50;99.90;;;;;;5071129;28;19999;-76
2022/04/29 12:40:10;;;;;;;;;;;26.40;99.90;;;;;;5074044;28;20011;-76
2022/04/29 12:43:08;;;;;;;;;;;26.30;99.90;;;;;;5088994;28;19912;-78
2022/04/29 12:45:48;;;;;;;;;;;26.10;99.90;;;;;;5076731;28;20324;-79
2022/04/29 12:48:36;;;;;;;;;;;26.00;99.90;;;;;;5073974;28;20011;-79
2022/04/29 12:54:10;;;;;;;;;;;25.60;99.90;;;;;;5073061;28;19957;-75
2022/04/29 12:56:36;;;;;;;;;;;25.70;99.90;;;;;;5072842;28;20340;-76
2022/04/29 12:59:03;;;;;;;;;;;25.80;99.90;;;;;;5073942;28;19919;-80
2022/04/29 13:04:54;;;;;;;;;;;26.20;99.90;;;;;;5073637;28;19915;-79
2022/04/29 13:07:24;;;;;;;;;;;26.20;99.90;;;;;;5068347;28;19959;-79
2022/04/29 13:10:02;;;;;;;;;;;25.70;99.90;;;;;;5105811;27;19957;-77
2022/04/29 13:12:27;;;;;;;;;;;25.50;99.90;;;;;;5078723;28;19935;-74
2022/04/29 13:14:54;;;;;;;;;;;25.50;99.90;;;;;;5077622;28;20364;-75
2022/04/29 13:17:19;;;;;;;;;;;25.60;99.90;;;;;;5076900;28;19966;-71
2022/04/29 13:19:45;;;;;;;;;;;25.80;99.90;;;;;;5077505;28;20331;-70
2022/04/29 13:22:11;;;;;;;;;;;25.70;99.90;;;;;;5059890;28;19913;-72
2022/04/29 13:24:36;;;;;;;;;;;25.70;99.90;;;;;;5077796;28;20251;-72
2022/04/29 13:27:02;;;;;;;;;;;25.70;99.90;;;;;;5069430;28;20265;-71
2022/04/29 13:29:31;;;;;;;;;;;25.30;99.90;;;;;;5091474;28;19978;-74
2022/04/29 13:31:57;;;;;;;;;;;25.20;99.90;;;;;;5082603;28;19952;-76
2022/04/29 13:34:23;;;;;;;;;;;25.00;99.90;;;;;;5077780;28;19916;-78
2022/04/29 13:36:49;;;;;;;;;;;24.90;99.90;;;;;;5077286;28;20310;-79
2022/04/29 13:39:15;;;;;;;;;;;24.60;99.90;;;;;;5076320;28;19908;-72
2022/04/29 13:41:40;;;;;;;;;;;24.40;99.90;;;;;;5077519;28;20332;-73
2022/04/29 13:44:18;;;;;;;;;;;24.20;99.90;;;;;;5077592;28;20591;-78
2022/04/29 13:46:44;;;;;;;;;;;24.10;99.90;;;;;;5077086;28;20370;-70
2022/04/29 13:49:09;;;;;;;;;;;24.20;99.90;;;;;;5069012;28;19909;-70
2022/04/29 13:51:35;;;;;;;;;;;24.40;99.90;;;;;;5073397;28;19912;-70
2022/04/29 13:54:00;;;;;;;;;;;24.50;99.90;;;;;;5068422;28;19909;-70
2022/04/29 13:56:26;;;;;;;;;;;24.60;99.90;;;;;;5060851;28;20329;-70
2022/04/29 13:58:52;;;;;;;;;;;24.70;99.90;;;;;;5070181;28;20351;-74
2022/04/29 14:01:17;;;;;;;;;;;24.80;99.90;;;;;;5077065;28;19987;-78
2022/04/29 14:03:43;;;;;;;;;;;24.80;99.90;;;;;;5077077;28;19978;-77
2022/04/29 14:06:09;;;;;;;;;;;24.70;99.90;;;;;;5077151;28;19912;-73
2022/04/29 14:08:54;;;;;;;;;;;24.80;99.90;;;;;;5077168;28;19912;-85
2022/04/29 14:11:24;;;;;;;;;;;24.80;99.90;;;;;;5073055;28;19913;-84
2022/04/29 14:13:50;;;;;;;;;;;24.90;99.90;;;;;;5077105;28;19978;-73
2022/04/29 14:16:18;;;;;;;;;;;24.90;99.90;;;;;;5076486;28;19917;-81
2022/04/29 14:18:48;;;;;;;;;;;24.90;99.90;;;;;;5075950;28;19951;-80
2022/04/29 14:21:14;;;;;;;;;;;24.70;99.90;;;;;;5076542;28;19912;-81
2022/04/29 14:23:54;;;;;;;;;;;24.70;99.90;;;;;;5076632;28;19909;-80
2022/04/29 14:26:20;;;;;;;;;;;24.80;99.90;;;;;;5076387;28;20236;-82
2022/04/29 14:28:55;;;;;;;;;;;24.90;99.90;;;;;;5076910;28;19909;-79
2022/04/29 14:31:20;;;;;;;;;;;25.00;99.90;;;;;;5070617;28;20291;-78
2022/04/29 14:33:48;;;;;;;;;;;24.90;99.90;;;;;;5071063;28;19917;-79
2022/04/29 14:36:14;;;;;;;;;;;25.00;99.90;;;;;;5076105;28;19965;-79
2022/04/29 14:38:54;;;;;;;;;;;25.10;99.90;;;;;;5076153;28;19908;-79
2022/04/29 14:41:36;;;;;;;;;;;24.90;99.90;;;;;;5088893;28;20263;-80
2022/04/29 14:44:06;;;;;;;;;;;;;;;;;;5086539;28;19915;-81
2022/04/29 14:46:36;;;;;;;;;;;25.10;99.90;;;;;;5076103;28;19912;-81
2022/04/29 14:49:12;;;;;;;;;;;25.10;99.90;;;;;;5076210;28;19915;-79
2022/04/29 14:51:55;;;;;;;;;;;25.20;99.90;;;;;;5075715;28;19912;-78
2022/04/29 14:54:20;;;;;;;;;;;25.50;99.90;;;;;;5075798;28;19912;-78
2022/04/29 14:56:54;;;;;;;;;;;25.60;99.90;;;;;;5075807;28;19913;-78
2022/04/29 14:59:20;;;;;;;;;;;25.70;99.90;;;;;;5076150;28;19908;-71
2022/04/29 15:01:46;;;;;;;;;;;26.00;99.90;;;;;;5074201;28;20275;-71
2022/04/29 15:04:13;;;;;;;;;;;26.00;99.90;;;;;;5075881;28;19909;-71
2022/04/29 15:06:39;;;;;;;;;;;26.30;99.90;;;;;;5071548;28;20314;-71
2022/04/29 15:17:30;;;;;;;;;;;27.40;99.90;;;;;;5055633;28;19920;-84
2022/04/29 15:19:56;;;;;;;;;;;27.90;99.90;;;;;;5069157;28;19918;-72
2022/04/29 15:22:24;;;;;;;;;;;28.10;99.90;;;;;;5074056;28;19913;-71
2022/04/29 15:24:50;;;;;;;;;;;28.40;99.90;;;;;;5065416;28;20368;-71
2022/04/29 15:27:16;;;;;;;;;;;28.30;99.90;;;;;;5072908;28;19981;-71
2022/04/29 15:29:44;;;;;;;;;;;28.00;99.90;;;;;;5074708;28;19908;-71
2022/04/29 15:32:10;;;;;;;;;;;27.60;99.90;;;;;;5074641;28;19908;-71
2022/04/29 15:34:35;;;;;;;;;;;27.10;99.90;;;;;;5064115;28;19920;-71
2022/04/29 15:37:01;;;;;;;;;;;;;;;;;;5069820;28;19917;-71
2022/04/29 15:41:22;;;;;;;;;;;26.70;99.90;;;;;;5111413;27;20279;-69
2022/04/29 15:43:48;;;;;;;;;;;26.40;99.90;;;;;;5104089;28;20389;-75
2022/04/29 15:46:14;;;;;;;;;;;26.30;99.90;;;;;;5108502;28;19965;-69
2022/04/29 15:48:39;;;;;;;;;;;26.30;99.90;;;;;;5092180;28;19908;-71
2022/04/29 15:51:05;;;;;;;4.05;3.72;;;25.80;99.90;;;;;;5091778;28;19915;-70
2022/04/29 15:53:31;;;;;;;1122.00;734.20;;;25.70;99.90;;;;;;5094654;28;20216;-69
2022/04/29 15:55:57;;;;;;;8.53;3.90;;;25.50;99.90;;;;;;5088602;28;20212;-69
2022/04/29 15:58:23;;;;;;;4.60;3.53;;;25.30;99.90;;;;;;5096387;28;20760;-68
2022/04/29 16:00:54;;;;;;;5.83;4.20;;;25.10;99.90;;;;;;5078169;28;20527;-78
2022/04/29 16:03:51;;;;;;;149.47;118.60;;;24.90;99.90;;;;;;5090228;28;20152;-77
2022/04/29 16:06:21;;;;;;;750.33;482.47;;;24.80;99.90;;;;;;5070237;28;20741;-76
2022/04/29 16:08:54;;;;;;;3.97;3.30;;;24.80;99.90;;;;;;5084558;28;20422;-78
2022/04/29 16:11:25;;;;;;;5.30;2.87;;;25.10;99.90;;;;;;5090616;28;20415;-76
2022/04/29 16:13:55;;;;;;;68.03;40.67;;;25.80;99.90;;;;;;5090424;28;20468;-76
2022/04/29 16:16:25;;;;;;;395.20;283.77;;;26.40;99.90;;;;;;5091227;28;20407;-87
2022/04/29 16:21:41;;;;;;;4.77;3.67;;;26.40;99.90;;;;;;5103988;28;21149;-69
2022/04/29 16:26:51;;;;;;;3.50;3.20;;;26.10;99.90;;;;;;5093031;28;20471;-69
2022/04/29 16:29:17;;;;;;;3.83;3.17;;;25.90;99.90;;;;;;5102824;28;20782;-68
2022/04/29 16:31:55;;;;;;;4.93;3.50;;;25.60;99.90;;;;;;5090588;28;20194;-74
2022/04/29 16:34:25;;;;;;;22.10;7.83;;;25.40;99.90;;;;;;5089936;28;20410;-74
2022/04/29 16:36:55;;;;;;;4.70;3.00;;;25.10;99.90;;;;;;5089755;28;20506;-74
2022/04/29 16:39:25;;;;;;;7.23;3.10;;;24.90;99.90;;;;;;5089824;28;20461;-73
2022/04/29 16:41:54;;;;;;;7.60;3.57;;;24.80;99.90;;;;;;5090017;28;20399;-74